Aviation Digital Data Service (ADDS)

Output produced by METARs form (1811 UTC 14 August 2018)
found at http://www.aviationweather.gov/adds/metars/
 
DIBK 141700Z 24006KT 9999 TS BKN013CB 28/22 Q1014 NOSIG
TAF DIBK 141700Z 1418/1518 24006KT 8000 SCT013 
     TEMPO 1418/1422 BKN013 
     PROB30 
     TEMPO 1418/1424 TS BKN013 FEW025CB
       
DIAP 141800Z 22009KT 9999 FEW012 26/22 Q1013 NOSIG
TAF DIAP 141700Z 1418/1524 24012KT 8000 SCT012 
     BECMG 1418/1422 22006KT 
     TEMPO 1422/1504 BKN012 
     PROB30 1505/1508 4000 BR
       
TAF DIYO 141700Z 1418/1518 22006KT 8000 SCT012 
     TEMPO 1418/1422 BKN013 
     PROB30 
     TEMPO 1419/1424 TS BKN013 FEW022CB 
     PROB30 1505/1507 4000 BR